Oysterville, Washington
Current Conditions -  °F | °C
As of 5:55 PM on Monday 20 Oct 2014 (Local Time) from KAST Reporting Station
Scattered Clouds Scattered Clouds  
Wind Chill: 59°   Ceiling: Unl
Heat Index: 59°   Visibility: 10mi
Dew Point: 53°   Wind: 12mph
Humidity: 81%   Direction: 200°SSW
Pressure: 29.75"   Gusts: 22mph
Location:  46.55°N, 124.03°W
Report Text: KAST 210055Z AUTO 20010G19KT 150V210 10SM FEW019 FEW028 SCT047 15/12 A2975 RMK AO2 SLP075 T01500117
Loading
Personal Weather Stations






























Interactive Weather Map
Tropical Storm Tracking
New forecast layout! Learn more

10-Day Weather Forecast

Advertisements
Track Severe Weather on mobile